sensor_id;sensor_type;location;lat;lon;timestamp;P1;durP1;ratioP1;P2;durP2;ratioP2
24637;SDS011;12773;50.162;8.548;2023-04-03T00:02:34;2.92;;;1.10;;
24637;SDS011;12773;50.162;8.548;2023-04-03T00:05:21;4.00;;;1.30;;
24637;SDS011;12773;50.162;8.548;2023-04-03T00:08:09;3.12;;;1.32;;
24637;SDS011;12773;50.162;8.548;2023-04-03T00:10:56;4.83;;;1.27;;
24637;SDS011;12773;50.162;8.548;2023-04-03T00:13:44;2.15;;;1.40;;
24637;SDS011;12773;50.162;8.548;2023-04-03T00:16:31;3.62;;;1.20;;
24637;SDS011;12773;50.162;8.548;2023-04-03T00:19:18;2.10;;;0.93;;
24637;SDS011;12773;50.162;8.548;2023-04-03T00:22:06;3.25;;;1.10;;
24637;SDS011;12773;50.162;8.548;2023-04-03T00:24:53;2.65;;;0.90;;
24637;SDS011;12773;50.162;8.548;2023-04-03T00:27:41;6.97;;;1.00;;
24637;SDS011;12773;50.162;8.548;2023-04-03T00:30:28;1.92;;;0.90;;
24637;SDS011;12773;50.162;8.548;2023-04-03T00:33:16;4.42;;;1.37;;
24637;SDS011;12773;50.162;8.548;2023-04-03T00:36:06;3.95;;;1.15;;
24637;SDS011;12773;50.162;8.548;2023-04-03T00:38:57;2.52;;;1.12;;
24637;SDS011;12773;50.162;8.548;2023-04-03T00:41:44;5.30;;;1.30;;
24637;SDS011;12773;50.162;8.548;2023-04-03T00:47:25;3.80;;;0.88;;
24637;SDS011;12773;50.162;8.548;2023-04-03T00:50:14;6.28;;;1.20;;
24637;SDS011;12773;50.162;8.548;2023-04-03T00:53:02;2.95;;;1.10;;
24637;SDS011;12773;50.162;8.548;2023-04-03T00:55:51;3.02;;;1.05;;
24637;SDS011;12773;50.162;8.548;2023-04-03T00:58:51;3.20;;;1.15;;
24637;SDS011;12773;50.162;8.548;2023-04-03T01:01:56;1.52;;;0.90;;
24637;SDS011;12773;50.162;8.548;2023-04-03T01:04:45;4.75;;;1.10;;
24637;SDS011;12773;50.162;8.548;2023-04-03T01:07:32;2.98;;;0.90;;
24637;SDS011;12773;50.162;8.548;2023-04-03T01:10:22;4.12;;;1.05;;
24637;SDS011;12773;50.162;8.548;2023-04-03T01:13:46;5.25;;;1.25;;
24637;SDS011;12773;50.162;8.548;2023-04-03T01:16:17;4.78;;;1.42;;
24637;SDS011;12773;50.162;8.548;2023-04-03T01:19:06;5.65;;;1.35;;
24637;SDS011;12773;50.162;8.548;2023-04-03T01:22:15;4.08;;;0.90;;
24637;SDS011;12773;50.162;8.548;2023-04-03T01:25:03;2.83;;;1.15;;
24637;SDS011;12773;50.162;8.548;2023-04-03T01:27:52;2.65;;;1.22;;
24637;SDS011;12773;50.162;8.548;2023-04-03T01:30:41;2.08;;;1.20;;
24637;SDS011;12773;50.162;8.548;2023-04-03T01:33:46;4.30;;;1.20;;
24637;SDS011;12773;50.162;8.548;2023-04-03T01:36:34;2.12;;;1.07;;
24637;SDS011;12773;50.162;8.548;2023-04-03T01:39:21;6.85;;;1.30;;
24637;SDS011;12773;50.162;8.548;2023-04-03T01:42:09;7.65;;;1.47;;
24637;SDS011;12773;50.162;8.548;2023-04-03T01:44:57;2.92;;;1.10;;
24637;SDS011;12773;50.162;8.548;2023-04-03T01:47:45;3.05;;;1.05;;
24637;SDS011;12773;50.162;8.548;2023-04-03T01:50:32;3.90;;;1.35;;
24637;SDS011;12773;50.162;8.548;2023-04-03T01:53:20;3.15;;;1.10;;
24637;SDS011;12773;50.162;8.548;2023-04-03T01:56:08;3.90;;;1.32;;
24637;SDS011;12773;50.162;8.548;2023-04-03T01:58:56;3.55;;;1.40;;
24637;SDS011;12773;50.162;8.548;2023-04-03T02:01:43;5.72;;;1.40;;
24637;SDS011;12773;50.162;8.548;2023-04-03T02:04:31;2.62;;;1.20;;
24637;SDS011;12773;50.162;8.548;2023-04-03T02:07:18;5.03;;;1.20;;
24637;SDS011;12773;50.162;8.548;2023-04-03T02:10:06;6.15;;;1.45;;
24637;SDS011;12773;50.162;8.548;2023-04-03T02:12:53;6.05;;;1.40;;
24637;SDS011;12773;50.162;8.548;2023-04-03T02:15:41;5.20;;;1.35;;
24637;SDS011;12773;50.162;8.548;2023-04-03T02:18:29;5.30;;;1.10;;
24637;SDS011;12773;50.162;8.548;2023-04-03T02:21:16;5.75;;;1.30;;
24637;SDS011;12773;50.162;8.548;2023-04-03T02:24:04;2.77;;;1.30;;
24637;SDS011;12773;50.162;8.548;2023-04-03T02:26:51;5.15;;;1.55;;
24637;SDS011;12773;50.162;8.548;2023-04-03T02:29:39;3.70;;;1.10;;
24637;SDS011;12773;50.162;8.548;2023-04-03T02:32:26;4.33;;;1.40;;
24637;SDS011;12773;50.162;8.548;2023-04-03T02:35:14;4.70;;;1.20;;
24637;SDS011;12773;50.162;8.548;2023-04-03T02:38:01;3.10;;;1.10;;
24637;SDS011;12773;50.162;8.548;2023-04-03T02:40:49;2.80;;;1.30;;
24637;SDS011;12773;50.162;8.548;2023-04-03T02:43:36;4.08;;;1.22;;
24637;SDS011;12773;50.162;8.548;2023-04-03T02:46:24;4.35;;;1.00;;
24637;SDS011;12773;50.162;8.548;2023-04-03T02:49:11;7.35;;;1.45;;
24637;SDS011;12773;50.162;8.548;2023-04-03T02:51:59;3.80;;;1.70;;
24637;SDS011;12773;50.162;8.548;2023-04-03T02:54:46;5.62;;;1.70;;
24637;SDS011;12773;50.162;8.548;2023-04-03T02:57:34;5.50;;;1.35;;
24637;SDS011;12773;50.162;8.548;2023-04-03T03:00:21;4.53;;;1.30;;
24637;SDS011;12773;50.162;8.548;2023-04-03T03:03:08;6.08;;;1.30;;
24637;SDS011;12773;50.162;8.548;2023-04-03T03:06:03;8.33;;;1.60;;
24637;SDS011;12773;50.162;8.548;2023-04-03T03:08:52;4.40;;;1.55;;
24637;SDS011;12773;50.162;8.548;2023-04-03T03:11:39;2.65;;;0.93;;
24637;SDS011;12773;50.162;8.548;2023-04-03T03:14:27;5.53;;;1.20;;
24637;SDS011;12773;50.162;8.548;2023-04-03T03:17:14;3.95;;;1.25;;
24637;SDS011;12773;50.162;8.548;2023-04-03T03:20:02;4.30;;;1.00;;
24637;SDS011;12773;50.162;8.548;2023-04-03T03:22:50;5.12;;;1.37;;
24637;SDS011;12773;50.162;8.548;2023-04-03T03:25:44;9.13;;;1.35;;
24637;SDS011;12773;50.162;8.548;2023-04-03T03:28:27;6.80;;;1.32;;
24637;SDS011;12773;50.162;8.548;2023-04-03T03:31:15;4.90;;;1.20;;
24637;SDS011;12773;50.162;8.548;2023-04-03T03:34:02;3.50;;;1.27;;
24637;SDS011;12773;50.162;8.548;2023-04-03T03:36:50;6.08;;;1.20;;
24637;SDS011;12773;50.162;8.548;2023-04-03T03:39:37;6.33;;;1.20;;
24637;SDS011;12773;50.162;8.548;2023-04-03T03:42:25;5.45;;;1.20;;
24637;SDS011;12773;50.162;8.548;2023-04-03T03:45:12;8.58;;;1.30;;
24637;SDS011;12773;50.162;8.548;2023-04-03T03:48:00;3.37;;;1.15;;
24637;SDS011;12773;50.162;8.548;2023-04-03T03:50:48;3.52;;;1.30;;
24637;SDS011;12773;50.162;8.548;2023-04-03T03:53:36;3.70;;;1.10;;
24637;SDS011;12773;50.162;8.548;2023-04-03T03:56:23;5.22;;;1.22;;
24637;SDS011;12773;50.162;8.548;2023-04-03T03:59:12;3.35;;;1.17;;
24637;SDS011;12773;50.162;8.548;2023-04-03T04:01:59;2.60;;;1.10;;
24637;SDS011;12773;50.162;8.548;2023-04-03T04:04:48;8.23;;;1.40;;
24637;SDS011;12773;50.162;8.548;2023-04-03T04:07:35;4.92;;;1.00;;
24637;SDS011;12773;50.162;8.548;2023-04-03T04:10:22;3.47;;;1.10;;
24637;SDS011;12773;50.162;8.548;2023-04-03T04:13:10;7.85;;;1.27;;
24637;SDS011;12773;50.162;8.548;2023-04-03T04:15:57;5.70;;;1.47;;
24637;SDS011;12773;50.162;8.548;2023-04-03T04:18:45;2.70;;;1.27;;
24637;SDS011;12773;50.162;8.548;2023-04-03T04:21:33;3.45;;;1.45;;
24637;SDS011;12773;50.162;8.548;2023-04-03T04:24:21;9.25;;;1.50;;
24637;SDS011;12773;50.162;8.548;2023-04-03T04:27:08;7.90;;;1.30;;
24637;SDS011;12773;50.162;8.548;2023-04-03T04:29:56;4.60;;;1.20;;
24637;SDS011;12773;50.162;8.548;2023-04-03T04:32:44;8.23;;;1.62;;
24637;SDS011;12773;50.162;8.548;2023-04-03T04:35:31;2.77;;;1.30;;
24637;SDS011;12773;50.162;8.548;2023-04-03T04:38:18;4.83;;;1.40;;
24637;SDS011;12773;50.162;8.548;2023-04-03T04:41:06;7.53;;;1.45;;
24637;SDS011;12773;50.162;8.548;2023-04-03T04:43:53;7.10;;;1.50;;
24637;SDS011;12773;50.162;8.548;2023-04-03T04:46:41;4.53;;;1.72;;
24637;SDS011;12773;50.162;8.548;2023-04-03T04:49:28;5.50;;;1.62;;
24637;SDS011;12773;50.162;8.548;2023-04-03T04:52:15;6.00;;;1.65;;
24637;SDS011;12773;50.162;8.548;2023-04-03T04:55:03;5.45;;;1.35;;
24637;SDS011;12773;50.162;8.548;2023-04-03T04:57:51;3.80;;;1.30;;
24637;SDS011;12773;50.162;8.548;2023-04-03T05:00:38;4.62;;;1.32;;
24637;SDS011;12773;50.162;8.548;2023-04-03T05:03:26;8.28;;;1.40;;
24637;SDS011;12773;50.162;8.548;2023-04-03T05:06:13;6.00;;;1.80;;
24637;SDS011;12773;50.162;8.548;2023-04-03T05:09:01;3.62;;;1.50;;
24637;SDS011;12773;50.162;8.548;2023-04-03T05:11:49;4.58;;;1.25;;
24637;SDS011;12773;50.162;8.548;2023-04-03T05:14:36;3.67;;;1.40;;
24637;SDS011;12773;50.162;8.548;2023-04-03T05:17:24;4.90;;;1.40;;
24637;SDS011;12773;50.162;8.548;2023-04-03T05:20:11;4.03;;;1.40;;
24637;SDS011;12773;50.162;8.548;2023-04-03T05:22:59;6.05;;;1.80;;
24637;SDS011;12773;50.162;8.548;2023-04-03T05:25:47;4.08;;;1.60;;
24637;SDS011;12773;50.162;8.548;2023-04-03T05:28:34;7.50;;;1.60;;
24637;SDS011;12773;50.162;8.548;2023-04-03T05:31:22;8.20;;;1.87;;
24637;SDS011;12773;50.162;8.548;2023-04-03T05:34:10;5.20;;;1.72;;
24637;SDS011;12773;50.162;8.548;2023-04-03T05:36:57;6.12;;;1.47;;
24637;SDS011;12773;50.162;8.548;2023-04-03T05:39:45;5.87;;;1.55;;
24637;SDS011;12773;50.162;8.548;2023-04-03T05:42:32;7.70;;;1.40;;
24637;SDS011;12773;50.162;8.548;2023-04-03T05:45:20;9.03;;;1.65;;
24637;SDS011;12773;50.162;8.548;2023-04-03T05:48:07;7.28;;;1.70;;
24637;SDS011;12773;50.162;8.548;2023-04-03T05:50:55;4.90;;;1.62;;
24637;SDS011;12773;50.162;8.548;2023-04-03T05:53:42;8.28;;;1.30;;
24637;SDS011;12773;50.162;8.548;2023-04-03T05:56:31;7.17;;;1.55;;
24637;SDS011;12773;50.162;8.548;2023-04-03T05:59:18;5.62;;;1.47;;
24637;SDS011;12773;50.162;8.548;2023-04-03T06:02:08;9.70;;;1.60;;
24637;SDS011;12773;50.162;8.548;2023-04-03T06:05:01;6.45;;;1.67;;
24637;SDS011;12773;50.162;8.548;2023-04-03T06:07:48;8.28;;;1.90;;
24637;SDS011;12773;50.162;8.548;2023-04-03T06:10:36;6.80;;;1.45;;
24637;SDS011;12773;50.162;8.548;2023-04-03T06:13:24;6.30;;;1.80;;
24637;SDS011;12773;50.162;8.548;2023-04-03T06:16:12;9.03;;;2.08;;
24637;SDS011;12773;50.162;8.548;2023-04-03T06:19:01;9.65;;;1.80;;
24637;SDS011;12773;50.162;8.548;2023-04-03T06:21:49;5.33;;;1.60;;
24637;SDS011;12773;50.162;8.548;2023-04-03T06:24:37;7.75;;;1.90;;
24637;SDS011;12773;50.162;8.548;2023-04-03T06:27:24;3.77;;;1.47;;
24637;SDS011;12773;50.162;8.548;2023-04-03T06:30:12;3.15;;;1.60;;
24637;SDS011;12773;50.162;8.548;2023-04-03T06:32:59;5.83;;;1.95;;
24637;SDS011;12773;50.162;8.548;2023-04-03T06:35:47;4.45;;;1.47;;
24637;SDS011;12773;50.162;8.548;2023-04-03T06:38:34;7.28;;;1.67;;
24637;SDS011;12773;50.162;8.548;2023-04-03T06:41:21;7.10;;;1.75;;
24637;SDS011;12773;50.162;8.548;2023-04-03T06:44:09;6.03;;;1.80;;
24637;SDS011;12773;50.162;8.548;2023-04-03T06:47:01;12.35;;;1.90;;
24637;SDS011;12773;50.162;8.548;2023-04-03T06:49:48;6.15;;;1.72;;
24637;SDS011;12773;50.162;8.548;2023-04-03T06:52:36;5.58;;;1.90;;
24637;SDS011;12773;50.162;8.548;2023-04-03T06:55:25;5.20;;;1.67;;
24637;SDS011;12773;50.162;8.548;2023-04-03T06:58:13;3.83;;;1.55;;
24637;SDS011;12773;50.162;8.548;2023-04-03T07:01:02;9.23;;;1.62;;
24637;SDS011;12773;50.162;8.548;2023-04-03T07:03:50;4.60;;;1.60;;
24637;SDS011;12773;50.162;8.548;2023-04-03T07:06:38;6.97;;;1.40;;
24637;SDS011;12773;50.162;8.548;2023-04-03T07:09:25;2.58;;;1.52;;
24637;SDS011;12773;50.162;8.548;2023-04-03T07:12:13;8.50;;;2.02;;
24637;SDS011;12773;50.162;8.548;2023-04-03T07:15:01;6.17;;;1.95;;
24637;SDS011;12773;50.162;8.548;2023-04-03T07:17:49;6.35;;;1.90;;
24637;SDS011;12773;50.162;8.548;2023-04-03T07:20:38;6.42;;;1.90;;
24637;SDS011;12773;50.162;8.548;2023-04-03T07:23:25;5.40;;;1.90;;
24637;SDS011;12773;50.162;8.548;2023-04-03T07:26:13;4.78;;;1.60;;
24637;SDS011;12773;50.162;8.548;2023-04-03T07:29:00;6.60;;;2.00;;
24637;SDS011;12773;50.162;8.548;2023-04-03T07:31:48;6.53;;;2.15;;
24637;SDS011;12773;50.162;8.548;2023-04-03T07:34:35;4.45;;;1.90;;
24637;SDS011;12773;50.162;8.548;2023-04-03T07:37:23;4.62;;;1.67;;
24637;SDS011;12773;50.162;8.548;2023-04-03T07:40:10;6.45;;;2.33;;
24637;SDS011;12773;50.162;8.548;2023-04-03T07:42:58;5.40;;;1.80;;
24637;SDS011;12773;50.162;8.548;2023-04-03T07:45:46;7.58;;;2.27;;
24637;SDS011;12773;50.162;8.548;2023-04-03T07:48:36;5.45;;;2.05;;
24637;SDS011;12773;50.162;8.548;2023-04-03T07:51:24;7.55;;;1.82;;
24637;SDS011;12773;50.162;8.548;2023-04-03T07:54:12;6.10;;;2.17;;
24637;SDS011;12773;50.162;8.548;2023-04-03T07:57:01;7.55;;;1.95;;
24637;SDS011;12773;50.162;8.548;2023-04-03T07:59:48;6.45;;;2.27;;
24637;SDS011;12773;50.162;8.548;2023-04-03T08:02:36;4.37;;;1.95;;
24637;SDS011;12773;50.162;8.548;2023-04-03T08:05:23;5.80;;;2.00;;
24637;SDS011;12773;50.162;8.548;2023-04-03T08:08:11;7.08;;;1.95;;
24637;SDS011;12773;50.162;8.548;2023-04-03T08:11:02;7.00;;;1.92;;
24637;SDS011;12773;50.162;8.548;2023-04-03T08:13:50;7.08;;;2.33;;
24637;SDS011;12773;50.162;8.548;2023-04-03T08:16:38;4.33;;;2.15;;
24637;SDS011;12773;50.162;8.548;2023-04-03T08:19:25;5.37;;;2.40;;
24637;SDS011;12773;50.162;8.548;2023-04-03T08:22:13;5.85;;;1.72;;
24637;SDS011;12773;50.162;8.548;2023-04-03T08:25:01;5.67;;;1.80;;
24637;SDS011;12773;50.162;8.548;2023-04-03T08:27:48;4.92;;;1.72;;
24637;SDS011;12773;50.162;8.548;2023-04-03T08:30:38;6.45;;;1.52;;
24637;SDS011;12773;50.162;8.548;2023-04-03T08:33:29;5.80;;;2.20;;
24637;SDS011;12773;50.162;8.548;2023-04-03T08:36:18;10.53;;;1.98;;
24637;SDS011;12773;50.162;8.548;2023-04-03T08:39:09;6.53;;;1.85;;
24637;SDS011;12773;50.162;8.548;2023-04-03T08:41:58;7.08;;;1.80;;
24637;SDS011;12773;50.162;8.548;2023-04-03T08:44:52;9.98;;;1.75;;
24637;SDS011;12773;50.162;8.548;2023-04-03T08:47:51;6.78;;;1.52;;
24637;SDS011;12773;50.162;8.548;2023-04-03T08:50:41;3.47;;;1.30;;
24637;SDS011;12773;50.162;8.548;2023-04-03T08:53:32;4.75;;;1.40;;
24637;SDS011;12773;50.162;8.548;2023-04-03T08:56:22;4.85;;;1.50;;
24637;SDS011;12773;50.162;8.548;2023-04-03T08:59:13;4.10;;;1.40;;
24637;SDS011;12773;50.162;8.548;2023-04-03T09:02:03;4.03;;;1.45;;
24637;SDS011;12773;50.162;8.548;2023-04-03T09:04:53;5.20;;;1.65;;
24637;SDS011;12773;50.162;8.548;2023-04-03T09:07:45;6.83;;;1.75;;
24637;SDS011;12773;50.162;8.548;2023-04-03T09:10:37;4.72;;;1.50;;
24637;SDS011;12773;50.162;8.548;2023-04-03T09:16:28;4.37;;;1.40;;
24637;SDS011;12773;50.162;8.548;2023-04-03T09:19:28;7.37;;;1.67;;
24637;SDS011;12773;50.162;8.548;2023-04-03T09:22:20;5.30;;;1.50;;
24637;SDS011;12773;50.162;8.548;2023-04-03T09:25:16;4.78;;;1.40;;
24637;SDS011;12773;50.162;8.548;2023-04-03T09:28:11;4.60;;;1.67;;
24637;SDS011;12773;50.162;8.548;2023-04-03T09:31:00;6.47;;;1.82;;
24637;SDS011;12773;50.162;8.548;2023-04-03T09:33:49;3.55;;;1.45;;
24637;SDS011;12773;50.162;8.548;2023-04-03T09:39:29;4.92;;;1.72;;
24637;SDS011;12773;50.162;8.548;2023-04-03T09:42:18;8.10;;;2.45;;
24637;SDS011;12773;50.162;8.548;2023-04-03T09:45:19;11.12;;;1.67;;
24637;SDS011;12773;50.162;8.548;2023-04-03T09:48:07;7.20;;;1.80;;
24637;SDS011;12773;50.162;8.548;2023-04-03T09:50:59;5.05;;;1.80;;
24637;SDS011;12773;50.162;8.548;2023-04-03T09:53:48;5.33;;;1.95;;
24637;SDS011;12773;50.162;8.548;2023-04-03T09:56:36;5.60;;;1.90;;
24637;SDS011;12773;50.162;8.548;2023-04-03T09:59:24;3.72;;;1.82;;
24637;SDS011;12773;50.162;8.548;2023-04-03T10:02:28;2.85;;;1.50;;
24637;SDS011;12773;50.162;8.548;2023-04-03T10:08:23;3.92;;;1.77;;
24637;SDS011;12773;50.162;8.548;2023-04-03T10:11:24;3.15;;;1.42;;
24637;SDS011;12773;50.162;8.548;2023-04-03T10:14:16;4.30;;;1.87;;
24637;SDS011;12773;50.162;8.548;2023-04-03T10:23:15;5.60;;;1.75;;
24637;SDS011;12773;50.162;8.548;2023-04-03T10:26:09;7.67;;;2.08;;
24637;SDS011;12773;50.162;8.548;2023-04-03T10:29:16;7.00;;;2.02;;
24637;SDS011;12773;50.162;8.548;2023-04-03T10:32:22;4.35;;;1.75;;
24637;SDS011;12773;50.162;8.548;2023-04-03T10:41:34;5.08;;;1.98;;
24637;SDS011;12773;50.162;8.548;2023-04-03T10:56:40;4.17;;;1.67;;
24637;SDS011;12773;50.162;8.548;2023-04-03T11:02:53;6.45;;;1.70;;
24637;SDS011;12773;50.162;8.548;2023-04-03T11:05:48;4.62;;;1.95;;
24637;SDS011;12773;50.162;8.548;2023-04-03T11:08:48;2.22;;;1.70;;
24637;SDS011;12773;50.162;8.548;2023-04-03T11:11:35;3.52;;;1.77;;
24637;SDS011;12773;50.162;8.548;2023-04-03T11:14:29;6.12;;;1.85;;
24637;SDS011;12773;50.162;8.548;2023-04-03T11:17:24;5.42;;;1.98;;
24637;SDS011;12773;50.162;8.548;2023-04-03T11:20:23;2.87;;;1.70;;
24637;SDS011;12773;50.162;8.548;2023-04-03T11:23:21;5.67;;;1.90;;
24637;SDS011;12773;50.162;8.548;2023-04-03T11:26:12;4.22;;;1.70;;
24637;SDS011;12773;50.162;8.548;2023-04-03T11:29:04;5.90;;;1.70;;
24637;SDS011;12773;50.162;8.548;2023-04-03T11:35:12;3.02;;;1.72;;
24637;SDS011;12773;50.162;8.548;2023-04-03T11:38:01;3.17;;;1.72;;
24637;SDS011;12773;50.162;8.548;2023-04-03T11:40:52;4.75;;;1.70;;
24637;SDS011;12773;50.162;8.548;2023-04-03T11:44:01;5.37;;;1.67;;
24637;SDS011;12773;50.162;8.548;2023-04-03T11:46:58;2.72;;;1.60;;
24637;SDS011;12773;50.162;8.548;2023-04-03T11:49:50;2.95;;;1.72;;
24637;SDS011;12773;50.162;8.548;2023-04-03T11:58:31;7.58;;;2.30;;
24637;SDS011;12773;50.162;8.548;2023-04-03T12:04:31;3.33;;;1.57;;
24637;SDS011;12773;50.162;8.548;2023-04-03T12:07:18;4.78;;;1.67;;
24637;SDS011;12773;50.162;8.548;2023-04-03T12:10:14;3.77;;;1.60;;
24637;SDS011;12773;50.162;8.548;2023-04-03T12:13:15;3.30;;;2.12;;
24637;SDS011;12773;50.162;8.548;2023-04-03T12:16:04;6.00;;;1.65;;
24637;SDS011;12773;50.162;8.548;2023-04-03T12:24:37;3.60;;;1.67;;
24637;SDS011;12773;50.162;8.548;2023-04-03T12:27:28;2.90;;;1.65;;
24637;SDS011;12773;50.162;8.548;2023-04-03T12:30:26;3.55;;;1.55;;
24637;SDS011;12773;50.162;8.548;2023-04-03T12:33:27;7.22;;;2.05;;
24637;SDS011;12773;50.162;8.548;2023-04-03T12:37:12;2.85;;;1.50;;
24637;SDS011;12773;50.162;8.548;2023-04-03T12:42:18;4.62;;;1.55;;
24637;SDS011;12773;50.162;8.548;2023-04-03T12:45:24;4.67;;;1.42;;
24637;SDS011;12773;50.162;8.548;2023-04-03T12:48:16;4.12;;;1.50;;
24637;SDS011;12773;50.162;8.548;2023-04-03T12:51:06;7.72;;;1.70;;
24637;SDS011;12773;50.162;8.548;2023-04-03T12:53:56;5.83;;;1.72;;
24637;SDS011;12773;50.162;8.548;2023-04-03T12:56:43;3.40;;;1.40;;
24637;SDS011;12773;50.162;8.548;2023-04-03T12:59:31;4.62;;;1.62;;
24637;SDS011;12773;50.162;8.548;2023-04-03T13:02:29;4.47;;;1.57;;
24637;SDS011;12773;50.162;8.548;2023-04-03T13:05:20;3.47;;;1.60;;
24637;SDS011;12773;50.162;8.548;2023-04-03T13:08:10;3.00;;;1.60;;
24637;SDS011;12773;50.162;8.548;2023-04-03T13:11:06;2.90;;;1.70;;
24637;SDS011;12773;50.162;8.548;2023-04-03T13:13:59;4.95;;;1.80;;
24637;SDS011;12773;50.162;8.548;2023-04-03T13:17:03;4.12;;;1.42;;
24637;SDS011;12773;50.162;8.548;2023-04-03T13:20:16;5.22;;;1.60;;
24637;SDS011;12773;50.162;8.548;2023-04-03T13:23:07;4.33;;;1.40;;
24637;SDS011;12773;50.162;8.548;2023-04-03T13:25:52;3.62;;;1.47;;
24637;SDS011;12773;50.162;8.548;2023-04-03T13:28:43;4.40;;;1.30;;
24637;SDS011;12773;50.162;8.548;2023-04-03T13:31:33;4.65;;;1.30;;
24637;SDS011;12773;50.162;8.548;2023-04-03T13:34:23;4.95;;;1.60;;
24637;SDS011;12773;50.162;8.548;2023-04-03T13:37:23;3.08;;;1.60;;
24637;SDS011;12773;50.162;8.548;2023-04-03T13:40:12;2.47;;;1.50;;
24637;SDS011;12773;50.162;8.548;2023-04-03T13:43:02;3.42;;;1.67;;
24637;SDS011;12773;50.162;8.548;2023-04-03T13:46:04;5.15;;;1.67;;
24637;SDS011;12773;50.162;8.548;2023-04-03T13:48:58;5.22;;;1.77;;
24637;SDS011;12773;50.162;8.548;2023-04-03T13:51:48;5.08;;;1.85;;
24637;SDS011;12773;50.162;8.548;2023-04-03T13:54:38;5.00;;;1.72;;
24637;SDS011;12773;50.162;8.548;2023-04-03T13:57:26;4.22;;;1.75;;
24637;SDS011;12773;50.162;8.548;2023-04-03T14:00:51;6.08;;;1.87;;
24637;SDS011;12773;50.162;8.548;2023-04-03T14:06:12;5.25;;;1.47;;
24637;SDS011;12773;50.162;8.548;2023-04-03T14:09:01;6.12;;;1.60;;
24637;SDS011;12773;50.162;8.548;2023-04-03T14:11:49;3.10;;;1.10;;
24637;SDS011;12773;50.162;8.548;2023-04-03T14:14:39;5.65;;;1.70;;
24637;SDS011;12773;50.162;8.548;2023-04-03T14:17:27;3.08;;;1.55;;
24637;SDS011;12773;50.162;8.548;2023-04-03T14:20:16;3.62;;;1.35;;
24637;SDS011;12773;50.162;8.548;2023-04-03T14:23:05;2.83;;;1.20;;
24637;SDS011;12773;50.162;8.548;2023-04-03T14:25:53;2.72;;;1.20;;
24637;SDS011;12773;50.162;8.548;2023-04-03T14:28:41;3.72;;;1.32;;
24637;SDS011;12773;50.162;8.548;2023-04-03T14:31:30;4.47;;;1.32;;
24637;SDS011;12773;50.162;8.548;2023-04-03T14:34:19;3.30;;;1.35;;
24637;SDS011;12773;50.162;8.548;2023-04-03T14:37:09;2.95;;;1.10;;
24637;SDS011;12773;50.162;8.548;2023-04-03T14:40:00;3.72;;;0.95;;
24637;SDS011;12773;50.162;8.548;2023-04-03T14:42:49;5.17;;;1.22;;
24637;SDS011;12773;50.162;8.548;2023-04-03T14:45:43;3.80;;;1.10;;
24637;SDS011;12773;50.162;8.548;2023-04-03T14:48:26;4.00;;;1.05;;
24637;SDS011;12773;50.162;8.548;2023-04-03T14:51:18;2.42;;;1.32;;
24637;SDS011;12773;50.162;8.548;2023-04-03T14:54:09;2.45;;;1.10;;
24637;SDS011;12773;50.162;8.548;2023-04-03T14:56:59;2.80;;;1.47;;
24637;SDS011;12773;50.162;8.548;2023-04-03T14:59:47;2.92;;;1.07;;
24637;SDS011;12773;50.162;8.548;2023-04-03T15:02:36;3.25;;;0.80;;
24637;SDS011;12773;50.162;8.548;2023-04-03T15:05:24;2.55;;;1.10;;
24637;SDS011;12773;50.162;8.548;2023-04-03T15:08:22;3.67;;;1.20;;
24637;SDS011;12773;50.162;8.548;2023-04-03T15:11:11;1.77;;;0.90;;
24637;SDS011;12773;50.162;8.548;2023-04-03T15:13:59;2.75;;;1.00;;
24637;SDS011;12773;50.162;8.548;2023-04-03T15:16:46;6.40;;;1.10;;
24637;SDS011;12773;50.162;8.548;2023-04-03T15:19:38;3.90;;;1.00;;
24637;SDS011;12773;50.162;8.548;2023-04-03T15:22:26;3.58;;;0.98;;
24637;SDS011;12773;50.162;8.548;2023-04-03T15:25:13;5.17;;;1.15;;
24637;SDS011;12773;50.162;8.548;2023-04-03T15:28:01;3.90;;;0.90;;
24637;SDS011;12773;50.162;8.548;2023-04-03T15:30:49;3.72;;;1.15;;
24637;SDS011;12773;50.162;8.548;2023-04-03T15:33:36;3.33;;;0.95;;
24637;SDS011;12773;50.162;8.548;2023-04-03T15:36:24;4.08;;;1.05;;
24637;SDS011;12773;50.162;8.548;2023-04-03T15:39:13;3.42;;;1.20;;
24637;SDS011;12773;50.162;8.548;2023-04-03T15:42:02;2.67;;;1.20;;
24637;SDS011;12773;50.162;8.548;2023-04-03T15:44:51;3.12;;;1.00;;
24637;SDS011;12773;50.162;8.548;2023-04-03T15:47:38;1.77;;;0.70;;
24637;SDS011;12773;50.162;8.548;2023-04-03T15:50:25;1.57;;;0.78;;
24637;SDS011;12773;50.162;8.548;2023-04-03T15:53:12;1.35;;;0.60;;
24637;SDS011;12773;50.162;8.548;2023-04-03T15:56:03;6.37;;;1.07;;
24637;SDS011;12773;50.162;8.548;2023-04-03T15:58:50;3.60;;;0.93;;
24637;SDS011;12773;50.162;8.548;2023-04-03T16:01:38;4.30;;;1.07;;
24637;SDS011;12773;50.162;8.548;2023-04-03T16:04:26;1.87;;;0.90;;
24637;SDS011;12773;50.162;8.548;2023-04-03T16:07:14;3.50;;;1.15;;
24637;SDS011;12773;50.162;8.548;2023-04-03T16:10:01;3.70;;;0.88;;
24637;SDS011;12773;50.162;8.548;2023-04-03T16:12:49;4.10;;;1.07;;
24637;SDS011;12773;50.162;8.548;2023-04-03T16:15:37;3.95;;;1.00;;
24637;SDS011;12773;50.162;8.548;2023-04-03T16:18:24;6.03;;;1.40;;
24637;SDS011;12773;50.162;8.548;2023-04-03T16:21:12;1.40;;;0.80;;
24637;SDS011;12773;50.162;8.548;2023-04-03T16:24:01;4.12;;;1.07;;
24637;SDS011;12773;50.162;8.548;2023-04-03T16:26:50;2.90;;;0.82;;
24637;SDS011;12773;50.162;8.548;2023-04-03T16:29:38;2.22;;;0.95;;
24637;SDS011;12773;50.162;8.548;2023-04-03T16:32:26;5.45;;;1.02;;
24637;SDS011;12773;50.162;8.548;2023-04-03T16:35:16;4.80;;;1.05;;
24637;SDS011;12773;50.162;8.548;2023-04-03T16:38:03;3.87;;;1.20;;
24637;SDS011;12773;50.162;8.548;2023-04-03T16:40:51;3.40;;;1.00;;
24637;SDS011;12773;50.162;8.548;2023-04-03T16:43:40;1.87;;;0.93;;
24637;SDS011;12773;50.162;8.548;2023-04-03T16:46:26;3.27;;;1.00;;
24637;SDS011;12773;50.162;8.548;2023-04-03T16:49:14;3.20;;;0.90;;
24637;SDS011;12773;50.162;8.548;2023-04-03T16:52:02;2.87;;;1.07;;
24637;SDS011;12773;50.162;8.548;2023-04-03T16:54:50;2.40;;;1.10;;
24637;SDS011;12773;50.162;8.548;2023-04-03T16:57:39;2.33;;;0.90;;
24637;SDS011;12773;50.162;8.548;2023-04-03T17:00:29;5.45;;;1.10;;
24637;SDS011;12773;50.162;8.548;2023-04-03T17:03:18;2.30;;;1.10;;
24637;SDS011;12773;50.162;8.548;2023-04-03T17:06:06;3.10;;;1.07;;
24637;SDS011;12773;50.162;8.548;2023-04-03T17:08:55;2.10;;;0.90;;
24637;SDS011;12773;50.162;8.548;2023-04-03T17:11:43;2.92;;;1.30;;
24637;SDS011;12773;50.162;8.548;2023-04-03T17:14:33;3.22;;;1.12;;
24637;SDS011;12773;50.162;8.548;2023-04-03T17:17:22;1.82;;;1.00;;
24637;SDS011;12773;50.162;8.548;2023-04-03T17:20:11;4.25;;;1.00;;
24637;SDS011;12773;50.162;8.548;2023-04-03T17:22:59;4.08;;;1.02;;
24637;SDS011;12773;50.162;8.548;2023-04-03T17:25:46;4.08;;;0.90;;
24637;SDS011;12773;50.162;8.548;2023-04-03T17:28:34;4.03;;;0.93;;
24637;SDS011;12773;50.162;8.548;2023-04-03T17:31:21;2.02;;;1.00;;
24637;SDS011;12773;50.162;8.548;2023-04-03T17:34:09;4.30;;;2.02;;
24637;SDS011;12773;50.162;8.548;2023-04-03T17:36:59;3.67;;;1.35;;
24637;SDS011;12773;50.162;8.548;2023-04-03T17:39:47;5.12;;;1.50;;
24637;SDS011;12773;50.162;8.548;2023-04-03T17:42:35;2.77;;;1.17;;
24637;SDS011;12773;50.162;8.548;2023-04-03T17:45:25;4.60;;;1.10;;
24637;SDS011;12773;50.162;8.548;2023-04-03T17:48:12;4.35;;;1.17;;
24637;SDS011;12773;50.162;8.548;2023-04-03T17:51:07;4.85;;;1.30;;
24637;SDS011;12773;50.162;8.548;2023-04-03T17:53:59;1.62;;;1.00;;
24637;SDS011;12773;50.162;8.548;2023-04-03T17:56:46;2.87;;;1.10;;
24637;SDS011;12773;50.162;8.548;2023-04-03T17:59:34;4.70;;;1.17;;
24637;SDS011;12773;50.162;8.548;2023-04-03T18:02:21;4.55;;;1.40;;
24637;SDS011;12773;50.162;8.548;2023-04-03T18:05:09;3.98;;;1.40;;
24637;SDS011;12773;50.162;8.548;2023-04-03T18:07:56;2.83;;;1.20;;